Time;durP1;ratioP1;P1;durP2;ratioP2;P2;SDS_P1;SDS_P2;PMS_P1;PMS_P2;Temp;Humidity;BMP_temperature;BMP_pressure;BME280_temperature;BME280_humidity;BME280_pressure;Samples;Min_cycle;Max_cycle;Signal;HPM_P1;HPM_P2
2024/02/05 00:00:52;;;;;;;41.17;15.20;;;11.70;99.90;;;;;;820349;172;26352;-79
2024/02/05 00:03:19;;;;;;;68.97;25.67;;;11.70;99.90;;;;;;805540;176;27015;-80
2024/02/05 00:05:45;;;;;;;66.53;24.63;;;11.70;99.90;;;;;;806224;176;26434;-80
2024/02/05 00:08:12;;;;;;;32.33;13.00;;;11.70;99.90;;;;;;808450;174;26447;-80
2024/02/05 00:10:39;;;;;;;42.27;16.70;;;11.70;99.90;;;;;;818756;173;26438;-80
2024/02/05 00:13:05;;;;;;;20.73;7.53;;;11.60;99.90;;;;;;823051;174;26441;-80
2024/02/05 00:15:32;;;;;;;18.90;5.70;;;11.70;99.90;;;;;;816520;174;26411;-80
2024/02/05 00:17:58;;;;;;;15.03;5.20;;;11.70;99.90;;;;;;824176;173;26448;-80
2024/02/05 00:20:25;;;;;;;19.90;7.10;;;11.70;99.90;;;;;;816958;173;26447;-80
2024/02/05 00:22:51;;;;;;;21.77;8.03;;;11.70;99.90;;;;;;814128;174;26454;-78
2024/02/05 00:25:22;;;;;;;27.87;8.90;;;11.70;99.90;;;;;;826003;172;26405;-79
2024/02/05 00:27:45;;;;;;;24.13;10.27;;;11.70;99.90;;;;;;812481;174;26419;-78
2024/02/05 00:30:11;;;;;;;17.90;5.37;;;11.70;99.90;;;;;;815183;174;26439;-78
2024/02/05 00:32:39;;;;;;;16.23;4.80;;;11.70;99.90;;;;;;816317;174;26418;-78
2024/02/05 00:35:05;;;;;;;14.33;5.37;;;11.70;99.90;;;;;;818985;173;26427;-80
2024/02/05 00:37:31;;;;;;;17.10;5.10;;;11.70;99.70;;;;;;811004;174;26417;-79
2024/02/05 00:39:59;;;;;;;17.07;4.87;;;11.70;99.80;;;;;;818377;174;26429;-80
2024/02/05 00:42:25;;;;;;;20.33;7.20;;;11.70;99.90;;;;;;813387;174;26434;-80
2024/02/05 00:44:52;;;;;;;21.27;5.67;;;11.70;99.90;;;;;;815630;173;26439;-80
2024/02/05 00:47:19;;;;;;;16.87;5.13;;;11.70;99.90;;;;;;820445;173;26402;-80
2024/02/05 00:49:45;;;;;;;38.03;15.73;;;11.70;99.90;;;;;;814872;174;26415;-79
2024/02/05 00:52:14;;;;;;;65.13;24.70;;;11.70;99.80;;;;;;808065;174;27032;-80
2024/02/05 00:54:39;;;;;;;32.50;9.57;;;11.70;99.90;;;;;;821129;173;26414;-80
2024/02/05 00:57:05;;;;;;;20.30;6.23;;;11.70;99.90;;;;;;820099;174;26437;-79
2024/02/05 00:59:32;;;;;;;51.33;21.07;;;11.70;99.90;;;;;;809069;174;26423;-79
2024/02/05 01:01:59;;;;;;;28.40;8.13;;;11.70;99.90;;;;;;813724;173;27055;-80
2024/02/05 01:04:26;;;;;;;20.23;6.17;;;11.70;99.70;;;;;;817798;173;26403;-79
2024/02/05 01:06:53;;;;;;;28.83;9.50;;;11.70;99.60;;;;;;819338;173;26434;-79
2024/02/05 01:09:21;;;;;;;39.13;12.17;;;11.70;99.50;;;;;;818651;173;26426;-80
2024/02/05 01:11:47;;;;;;;15.47;4.47;;;11.70;99.70;;;;;;810082;174;26436;-79
2024/02/05 01:14:13;;;;;;;21.00;6.00;;;11.70;99.50;;;;;;816970;174;26471;-80
2024/02/05 01:16:40;;;;;;;20.47;6.30;;;11.70;99.60;;;;;;820392;174;26426;-79
2024/02/05 01:19:06;;;;;;;16.43;5.03;;;11.70;99.90;;;;;;812923;174;26415;-79
2024/02/05 01:21:35;;;;;;;28.60;7.97;;;11.60;99.80;;;;;;815373;174;26413;-78
2024/02/05 01:24:02;;;;;;;43.60;12.30;;;11.70;99.80;;;;;;811622;174;26427;-79
2024/02/05 01:26:27;;;;;;;34.83;10.73;;;11.60;99.60;;;;;;814928;172;26450;-80
2024/02/05 01:28:54;;;;;;;48.93;13.13;;;11.60;99.90;;;;;;823592;173;26413;-78
2024/02/05 01:31:20;;;;;;;48.10;13.50;;;11.60;99.90;;;;;;820092;173;26425;-79
2024/02/05 01:33:47;;;;;;;40.30;11.50;;;11.60;99.60;;;;;;819663;173;26446;-80
2024/02/05 01:36:13;;;;;;;31.00;7.37;;;11.60;99.70;;;;;;819622;174;26471;-79
2024/02/05 01:38:40;;;;;;;30.13;9.00;;;11.60;99.40;;;;;;813666;174;26423;-80
2024/02/05 01:41:07;;;;;;;31.33;8.77;;;11.70;99.50;;;;;;815407;174;26444;-80
2024/02/05 01:43:34;;;;;;;25.13;5.13;;;11.60;99.40;;;;;;814198;174;26424;-80
2024/02/05 01:46:01;;;;;;;19.53;5.70;;;11.60;99.40;;;;;;820089;173;26412;-80
2024/02/05 01:48:27;;;;;;;19.57;6.00;;;11.60;99.40;;;;;;821528;173;26408;-79
2024/02/05 01:50:54;;;;;;;22.57;5.87;;;11.60;99.80;;;;;;816064;174;26417;-80
2024/02/05 01:53:21;;;;;;;33.73;7.77;;;11.60;99.60;;;;;;816580;173;26966;-80
2024/02/05 01:55:47;;;;;;;25.50;6.80;;;11.70;99.30;;;;;;811908;174;26441;-77
2024/02/05 01:58:14;;;;;;;32.17;9.07;;;11.60;99.40;;;;;;814679;173;26423;-78
2024/02/05 02:00:41;;;;;;;27.23;8.00;;;11.60;99.60;;;;;;816805;174;26436;-80
2024/02/05 02:03:07;;;;;;;26.67;7.27;;;11.60;99.20;;;;;;817878;173;26428;-80
2024/02/05 02:05:34;;;;;;;19.63;5.33;;;11.60;99.10;;;;;;812209;173;26427;-79
2024/02/05 02:08:00;;;;;;;28.00;7.40;;;11.60;99.30;;;;;;814256;174;26408;-79
2024/02/05 02:10:27;;;;;;;24.07;6.53;;;11.60;99.50;;;;;;812596;173;26433;-79
2024/02/05 02:12:53;;;;;;;23.97;6.30;;;11.60;99.50;;;;;;813792;173;26436;-80
2024/02/05 02:15:20;;;;;;;30.23;8.97;;;11.50;99.50;;;;;;821660;173;26585;-79
2024/02/05 02:17:47;;;;;;;21.53;6.80;;;11.60;99.30;;;;;;821201;175;26423;-79
2024/02/05 02:20:13;;;;;;;21.50;6.60;;;11.60;99.60;;;;;;821576;174;26476;-79
2024/02/05 02:22:43;;;;;;;28.33;6.57;;;11.60;99.30;;;;;;817583;173;26500;-80
2024/02/05 02:25:10;;;;;;;27.37;5.03;;;11.60;99.40;;;;;;816792;173;26425;-80
2024/02/05 02:27:36;;;;;;;22.70;5.87;;;11.60;99.50;;;;;;825625;172;26580;-79
2024/02/05 02:30:03;;;;;;;23.47;6.60;;;11.50;99.30;;;;;;809350;174;26450;-79
2024/02/05 02:32:38;;;;;;;21.50;5.37;;;11.60;99.50;;;;;;809998;174;26415;-78
2024/02/05 02:35:05;;;;;;;23.67;6.33;;;11.50;99.40;;;;;;814309;174;26439;-78
2024/02/05 02:37:32;;;;;;;25.80;6.70;;;11.60;99.40;;;;;;811117;173;26415;-79
2024/02/05 02:40:00;;;;;;;28.70;6.27;;;11.60;99.30;;;;;;810998;173;26441;-78
2024/02/05 02:42:26;;;;;;;37.57;7.33;;;11.50;99.20;;;;;;817628;174;26418;-78
2024/02/05 02:44:53;;;;;;;27.27;7.23;;;11.60;99.00;;;;;;815184;172;26427;-79
2024/02/05 02:47:20;;;;;;;23.57;6.57;;;11.60;99.20;;;;;;813116;174;26448;-79
2024/02/05 02:49:48;;;;;;;27.27;6.10;;;11.50;99.30;;;;;;815612;174;26417;-79
2024/02/05 02:52:13;;;;;;;28.27;7.20;;;11.50;99.10;;;;;;812476;174;26427;-78
2024/02/05 02:54:40;;;;;;;37.30;7.50;;;11.50;99.20;;;;;;815789;174;26425;-80
2024/02/05 02:57:06;;;;;;;22.80;5.60;;;11.50;99.40;;;;;;818557;174;26414;-78
2024/02/05 02:59:33;;;;;;;24.87;6.60;;;11.50;99.00;;;;;;808965;174;27494;-78
2024/02/05 03:01:59;;;;;;;26.43;6.17;;;11.50;99.10;;;;;;816915;175;26437;-80
2024/02/05 03:04:26;;;;;;;29.17;7.13;;;11.50;99.10;;;;;;819002;174;26418;-80
2024/02/05 03:06:52;;;;;;;30.50;6.23;;;11.50;99.00;;;;;;814870;174;26423;-79
2024/02/05 03:09:19;;;;;;;24.87;6.27;;;11.50;98.80;;;;;;816127;173;26452;-80
2024/02/05 03:11:46;;;;;;;41.23;9.40;;;11.50;98.80;;;;;;821685;174;26449;-80
2024/02/05 03:14:12;;;;;;;37.60;11.20;;;11.50;98.90;;;;;;814820;174;26984;-80
2024/02/05 03:16:39;;;;;;;30.50;9.37;;;11.50;98.60;;;;;;818360;174;26433;-80
2024/02/05 03:19:05;;;;;;;26.07;6.10;;;11.50;99.10;;;;;;806593;174;26448;-80
2024/02/05 03:21:32;;;;;;;34.03;8.10;;;11.50;99.10;;;;;;811883;174;26435;-80
2024/02/05 03:23:59;;;;;;;27.93;6.50;;;11.50;98.80;;;;;;818768;174;26469;-80
2024/02/05 03:26:25;;;;;;;34.47;6.87;;;11.50;98.80;;;;;;812677;174;26415;-80
2024/02/05 03:28:52;;;;;;;29.83;7.30;;;11.50;98.70;;;;;;815626;173;26426;-78
2024/02/05 03:31:18;;;;;;;37.57;6.57;;;11.50;98.60;;;;;;810331;175;26997;-79
2024/02/05 03:33:45;;;;;;;31.73;6.03;;;11.50;98.60;;;;;;816442;174;26418;-80
2024/02/05 03:36:12;;;;;;;27.97;6.10;;;11.40;99.00;;;;;;824661;173;26446;-79
2024/02/05 03:38:38;;;;;;;34.63;6.37;;;11.50;98.30;;;;;;823866;174;26419;-78
2024/02/05 03:41:06;;;;;;;34.33;7.90;;;11.50;98.40;;;;;;817615;173;26457;-80
2024/02/05 03:43:32;;;;;;;28.03;7.47;;;11.40;98.70;;;;;;819097;173;26412;-80
2024/02/05 03:45:58;;;;;;;36.47;6.63;;;11.40;98.50;;;;;;817909;174;26434;-79
2024/02/05 03:48:25;;;;;;;30.83;7.40;;;11.40;98.40;;;;;;816304;174;26458;-80
2024/02/05 03:50:51;;;;;;;32.80;6.63;;;11.40;98.60;;;;;;823403;173;26443;-81
2024/02/05 03:53:18;;;;;;;25.80;5.80;;;11.40;98.60;;;;;;822521;174;26435;-81
2024/02/05 03:55:45;;;;;;;26.87;6.73;;;11.40;98.40;;;;;;818841;174;26427;-78
2024/02/05 03:58:11;;;;;;;32.53;6.70;;;11.40;98.30;;;;;;821552;174;26449;-81
2024/02/05 04:00:38;;;;;;;40.80;8.40;;;11.40;98.40;;;;;;821618;174;26423;-81
2024/02/05 04:03:06;;;;;;;37.87;6.47;;;11.40;98.50;;;;;;823286;174;26425;-81
2024/02/05 04:05:31;;;;;;;30.10;8.37;;;11.40;98.70;;;;;;823436;174;26403;-80
2024/02/05 04:07:58;;;;;;;28.03;6.83;;;11.30;98.40;;;;;;821211;173;27015;-81
2024/02/05 04:10:24;;;;;;;38.90;7.60;;;11.40;98.90;;;;;;808547;174;26447;-80
2024/02/05 04:12:51;;;;;;;28.53;7.00;;;11.30;99.00;;;;;;817152;174;26986;-80
2024/02/05 04:15:17;;;;;;;35.50;6.63;;;11.40;98.80;;;;;;812439;173;26575;-80
2024/02/05 04:17:44;;;;;;;36.93;7.73;;;11.30;98.20;;;;;;813146;174;26402;-77
2024/02/05 04:20:11;;;;;;;37.63;6.97;;;11.30;98.40;;;;;;817325;174;26434;-81
2024/02/05 04:22:39;;;;;;;37.37;6.67;;;11.30;98.50;;;;;;821877;174;26399;-80
2024/02/05 04:25:08;;;;;;;48.17;7.83;;;11.30;98.10;;;;;;814070;173;26427;-80
2024/02/05 04:27:32;;;;;;;37.27;7.30;;;11.30;98.10;;;;;;814103;172;26421;-79
2024/02/05 04:29:59;;;;;;;32.10;6.50;;;11.30;98.30;;;;;;815316;174;26415;-80
2024/02/05 04:32:26;;;;;;;38.90;7.83;;;11.30;98.40;;;;;;818857;174;26964;-80
2024/02/05 04:34:52;;;;;;;29.50;6.80;;;11.30;98.10;;;;;;822691;173;26414;-78
2024/02/05 04:37:20;;;;;;;33.80;6.53;;;11.30;98.00;;;;;;818428;173;26447;-79
2024/02/05 04:39:45;;;;;;;29.53;6.17;;;11.30;98.10;;;;;;815975;174;26418;-79
2024/02/05 04:42:12;;;;;;;26.50;5.97;;;11.30;97.90;;;;;;819656;173;26417;-80
2024/02/05 04:44:38;;;;;;;32.17;6.50;;;11.30;97.70;;;;;;809818;174;26742;-79
2024/02/05 04:47:05;;;;;;;33.23;5.77;;;11.30;97.90;;;;;;817459;173;26428;-78
2024/02/05 04:49:31;;;;;;;30.97;7.43;;;11.30;98.20;;;;;;824022;173;26418;-80
2024/02/05 04:52:00;;;;;;;39.13;7.57;;;11.30;97.90;;;;;;819919;174;27005;-80
2024/02/05 04:54:25;;;;;;;30.87;6.20;;;11.20;98.00;;;;;;821919;174;26438;-79
2024/02/05 04:56:51;;;;;;;31.90;7.60;;;11.30;98.00;;;;;;813705;174;26454;-80
2024/02/05 04:59:18;;;;;;;25.90;5.80;;;11.20;97.60;;;;;;814026;174;26479;-79
2024/02/05 05:01:44;;;;;;;28.00;6.87;;;11.20;97.40;;;;;;810593;174;26445;-80
2024/02/05 05:04:11;;;;;;;35.10;7.30;;;11.30;97.30;;;;;;815333;173;26420;-79
2024/02/05 05:06:38;;;;;;;35.83;6.90;;;11.20;98.10;;;;;;811468;174;26769;-79
2024/02/05 05:09:04;;;;;;;28.53;6.23;;;11.20;97.60;;;;;;809230;174;26419;-80
2024/02/05 05:11:31;;;;;;;27.53;6.37;;;11.20;98.10;;;;;;815817;173;26467;-79
2024/02/05 05:13:57;;;;;;;37.20;7.20;;;11.30;97.50;;;;;;818919;173;26415;-82
2024/02/05 05:16:24;;;;;;;24.93;6.27;;;11.30;98.00;;;;;;809198;175;26413;-80
2024/02/05 05:18:51;;;;;;;36.57;7.20;;;11.20;97.60;;;;;;820482;174;26411;-80
2024/02/05 05:21:17;;;;;;;37.43;6.33;;;11.20;97.60;;;;;;820890;174;26430;-81
2024/02/05 05:23:44;;;;;;;35.83;7.37;;;11.20;97.40;;;;;;817083;173;26407;-80
2024/02/05 05:26:11;;;;;;;33.97;6.70;;;11.20;97.40;;;;;;818186;174;26452;-76
2024/02/05 05:28:41;;;;;;;32.70;6.27;;;11.20;97.90;;;;;;810875;174;26491;-79
2024/02/05 05:31:06;;;;;;;35.87;7.60;;;11.20;97.40;;;;;;821474;175;26468;-81
2024/02/05 05:33:33;;;;;;;29.63;6.33;;;11.20;97.50;;;;;;818380;174;26421;-80
2024/02/05 05:36:00;;;;;;;30.00;6.83;;;11.20;97.50;;;;;;809771;173;26444;-80
2024/02/05 05:38:27;;;;;;;23.60;6.47;;;11.20;97.40;;;;;;815406;174;26417;-78
2024/02/05 05:40:53;;;;;;;33.10;7.00;;;11.30;97.60;;;;;;821954;174;26438;-78
2024/02/05 05:43:20;;;;;;;31.30;6.90;;;11.40;97.60;;;;;;813768;174;26413;-77
2024/02/05 05:45:46;;;;;;;34.57;7.50;;;11.30;97.00;;;;;;813923;173;26442;-78
2024/02/05 05:48:13;;;;;;;31.93;7.07;;;11.30;96.90;;;;;;812487;174;26415;-77
2024/02/05 05:50:39;;;;;;;25.63;7.00;;;11.30;96.70;;;;;;820287;174;26418;-81
2024/02/05 05:53:06;;;;;;;24.27;6.67;;;11.20;96.70;;;;;;815865;174;26954;-79
2024/02/05 05:55:32;;;;;;;25.00;7.33;;;11.20;97.20;;;;;;810877;174;26422;-79
2024/02/05 05:57:59;;;;;;;26.87;7.60;;;11.20;96.90;;;;;;816184;174;26447;-79
2024/02/05 06:00:26;;;;;;;29.90;6.73;;;11.20;97.10;;;;;;817786;173;26448;-79
2024/02/05 06:02:52;;;;;;;35.97;6.87;;;11.10;96.90;;;;;;814806;174;26437;-79
2024/02/05 06:05:19;;;;;;;30.17;6.87;;;11.20;96.80;;;;;;819708;173;26430;-79
2024/02/05 06:07:46;;;;;;;35.10;6.60;;;11.20;96.90;;;;;;814346;173;26428;-79
2024/02/05 06:10:13;;;;;;;29.43;6.10;;;11.20;96.60;;;;;;819948;173;26538;-79
2024/02/05 06:12:39;;;;;;;30.17;6.97;;;11.10;96.40;;;;;;815972;174;26973;-76
2024/02/05 06:15:09;;;;;;;37.47;7.33;;;11.10;96.20;;;;;;817012;174;26417;-78
2024/02/05 06:17:34;;;;;;;35.53;7.70;;;11.10;96.80;;;;;;812878;172;26750;-79
2024/02/05 06:20:00;;;;;;;34.53;7.10;;;11.10;96.50;;;;;;818966;173;26443;-79
2024/02/05 06:22:27;;;;;;;23.70;6.57;;;11.10;96.30;;;;;;820429;173;26430;-79
2024/02/05 06:24:54;;;;;;;27.37;6.10;;;11.10;96.30;;;;;;815837;174;26411;-76
2024/02/05 06:27:22;;;;;;;24.40;6.60;;;11.10;96.20;;;;;;818335;173;27004;-79
2024/02/05 06:29:47;;;;;;;33.33;6.90;;;11.10;95.80;;;;;;818853;174;26436;-80
2024/02/05 06:32:13;;;;;;;34.17;6.70;;;11.10;96.10;;;;;;818125;173;26990;-78
2024/02/05 06:34:40;;;;;;;25.67;7.90;;;11.10;96.10;;;;;;819907;174;26415;-77
2024/02/05 06:37:07;;;;;;;32.00;6.97;;;11.10;96.00;;;;;;816900;174;26426;-78
2024/02/05 06:39:33;;;;;;;39.47;7.10;;;11.00;95.80;;;;;;813129;174;26435;-78
2024/02/05 06:42:00;;;;;;;42.50;6.70;;;11.00;95.80;;;;;;818542;174;26445;-79
2024/02/05 06:44:27;;;;;;;23.73;6.40;;;11.00;95.80;;;;;;815832;174;26472;-78
2024/02/05 06:46:53;;;;;;;24.03;5.80;;;11.00;95.90;;;;;;808013;174;26439;-79
2024/02/05 06:49:22;;;;;;;23.53;6.73;;;11.00;96.10;;;;;;821576;174;26434;-78
2024/02/05 06:51:46;;;;;;;34.27;7.30;;;11.00;96.00;;;;;;809123;174;26448;-79
2024/02/05 06:54:14;;;;;;;28.40;7.03;;;11.00;96.00;;;;;;815031;174;26422;-79
2024/02/05 06:56:40;;;;;;;31.03;7.73;;;11.00;96.00;;;;;;810886;173;26427;-78
2024/02/05 06:59:08;;;;;;;26.63;6.43;;;11.00;95.90;;;;;;816786;173;26418;-78
2024/02/05 07:01:34;;;;;;;25.07;6.13;;;11.00;96.20;;;;;;812845;174;26439;-79
2024/02/05 07:04:00;;;;;;;36.80;7.87;;;11.00;96.20;;;;;;813618;174;26417;-79
2024/02/05 07:06:27;;;;;;;25.50;7.50;;;11.00;95.90;;;;;;822117;174;26418;-79
2024/02/05 07:08:53;;;;;;;28.93;7.13;;;11.00;96.00;;;;;;823854;173;26446;-80
2024/02/05 07:11:20;;;;;;;25.53;6.83;;;11.00;96.30;;;;;;812053;174;26434;-80
2024/02/05 07:13:47;;;;;;;35.43;8.03;;;11.00;95.80;;;;;;811226;174;26402;-75
2024/02/05 07:16:14;;;;;;;30.80;7.67;;;11.00;96.70;;;;;;817002;174;26434;-79
2024/02/05 07:18:41;;;;;;;28.83;7.30;;;11.00;95.90;;;;;;821645;174;26414;-78
2024/02/05 07:21:07;;;;;;;25.63;7.17;;;11.00;95.80;;;;;;809157;174;26479;-79
2024/02/05 07:23:35;;;;;;;32.17;7.33;;;11.00;96.40;;;;;;821262;173;26774;-80
2024/02/05 07:26:00;;;;;;;28.57;6.23;;;11.00;95.70;;;;;;816885;174;26424;-80
2024/02/05 07:28:27;;;;;;;24.17;6.30;;;11.00;95.70;;;;;;811780;174;26430;-78
2024/02/05 07:30:54;;;;;;;25.70;6.77;;;11.00;95.30;;;;;;830935;172;26418;-79
2024/02/05 07:33:20;;;;;;;30.13;6.03;;;11.10;95.40;;;;;;819160;172;26427;-79
2024/02/05 07:35:47;;;;;;;28.07;6.90;;;11.00;95.90;;;;;;819013;174;26438;-79
2024/02/05 07:38:13;;;;;;;21.87;6.07;;;11.00;95.40;;;;;;812731;174;26416;-79
2024/02/05 07:40:40;;;;;;;25.27;5.87;;;11.00;95.20;;;;;;819287;173;26450;-80
2024/02/05 07:43:07;;;;;;;23.73;7.47;;;11.00;95.80;;;;;;813136;174;26427;-79
2024/02/05 07:45:33;;;;;;;28.80;6.93;;;11.00;95.90;;;;;;819765;174;26484;-79
2024/02/05 07:48:00;;;;;;;30.20;6.70;;;11.00;95.30;;;;;;816146;174;26417;-76
2024/02/05 07:50:26;;;;;;;19.23;6.47;;;11.00;95.20;;;;;;810067;175;26431;-79
2024/02/05 07:52:53;;;;;;;33.30;6.43;;;11.00;95.10;;;;;;823591;174;26423;-79
2024/02/05 07:55:20;;;;;;;21.90;5.90;;;11.00;95.70;;;;;;809786;173;26423;-79
2024/02/05 07:57:46;;;;;;;26.57;5.80;;;11.00;95.60;;;;;;820982;173;26489;-79
2024/02/05 08:00:13;;;;;;;22.87;6.43;;;11.00;95.10;;;;;;816990;174;26499;-79
2024/02/05 08:02:40;;;;;;;22.47;5.60;;;10.90;95.10;;;;;;807070;174;26415;-76
2024/02/05 08:05:06;;;;;;;22.37;5.33;;;10.90;95.40;;;;;;812939;174;26425;-80
2024/02/05 08:07:33;;;;;;;33.83;7.67;;;10.90;95.30;;;;;;819982;173;26427;-79
2024/02/05 08:10:00;;;;;;;26.63;6.13;;;10.90;95.20;;;;;;821018;173;26418;-79
2024/02/05 08:12:26;;;;;;;19.80;5.53;;;11.00;94.90;;;;;;812254;174;26439;-79
2024/02/05 08:14:53;;;;;;;25.27;6.50;;;11.00;96.00;;;;;;812698;173;26972;-76
2024/02/05 08:17:19;;;;;;;21.13;5.23;;;11.00;95.10;;;;;;819333;174;26437;-78
2024/02/05 08:19:46;;;;;;;21.43;5.70;;;11.00;95.00;;;;;;815359;174;26967;-79
2024/02/05 08:22:13;;;;;;;16.63;5.70;;;11.00;95.20;;;;;;818542;172;26598;-79
2024/02/05 08:24:39;;;;;;;25.70;5.63;;;11.00;94.90;;;;;;824746;173;26421;-79
2024/02/05 08:27:06;;;;;;;18.53;5.80;;;11.00;94.90;;;;;;823477;173;26438;-79
2024/02/05 08:29:32;;;;;;;27.67;6.20;;;11.10;94.50;;;;;;819930;174;26414;-79
2024/02/05 08:31:59;;;;;;;26.97;5.83;;;11.10;95.10;;;;;;813776;174;26438;-76
2024/02/05 08:34:26;;;;;;;17.80;4.83;;;11.10;94.80;;;;;;806987;174;26431;-78
2024/02/05 08:36:52;;;;;;;34.80;6.43;;;11.10;94.40;;;;;;816626;174;26413;-79
2024/02/05 08:39:19;;;;;;;20.20;5.00;;;11.10;94.50;;;;;;821989;174;26992;-79
2024/02/05 08:41:45;;;;;;;25.17;5.83;;;11.10;95.00;;;;;;822877;173;26442;-81
2024/02/05 08:44:12;;;;;;;28.30;6.13;;;11.10;94.80;;;;;;823650;174;26422;-80
2024/02/05 08:46:39;;;;;;;30.80;7.40;;;11.10;95.10;;;;;;821656;174;26569;-79
2024/02/05 08:49:05;;;;;;;20.93;5.93;;;11.10;94.60;;;;;;818779;173;26406;-81
2024/02/05 08:51:34;;;;;;;23.07;5.43;;;11.10;94.70;;;;;;825810;173;26410;-79
2024/02/05 08:53:58;;;;;;;25.67;6.70;;;11.00;94.80;;;;;;818018;173;26445;-80
2024/02/05 08:56:25;;;;;;;19.73;5.67;;;11.00;94.60;;;;;;817641;174;26419;-79
2024/02/05 08:58:52;;;;;;;18.33;4.70;;;11.00;94.30;;;;;;815082;173;26422;-79
2024/02/05 09:01:18;;;;;;;26.87;6.00;;;11.10;94.20;;;;;;807920;174;26418;-79
2024/02/05 09:03:45;;;;;;;16.03;5.53;;;11.10;94.50;;;;;;816670;174;26422;-76
2024/02/05 09:06:11;;;;;;;27.70;7.17;;;11.10;94.30;;;;;;810574;174;27657;-79
2024/02/05 09:08:38;;;;;;;32.60;6.30;;;11.10;94.50;;;;;;815712;174;26414;-79
2024/02/05 09:11:05;;;;;;;21.83;5.33;;;11.10;94.60;;;;;;820319;174;26639;-80
2024/02/05 09:13:31;;;;;;;24.87;5.80;;;11.10;94.10;;;;;;819347;173;26442;-79
2024/02/05 09:15:58;;;;;;;23.70;6.67;;;11.10;94.30;;;;;;816637;174;26441;-75
2024/02/05 09:18:24;;;;;;;23.50;5.63;;;11.10;94.70;;;;;;820149;174;26456;-78
2024/02/05 09:20:51;;;;;;;17.13;5.00;;;11.10;94.30;;;;;;816937;173;26430;-78
2024/02/05 09:23:18;;;;;;;24.50;5.50;;;11.10;94.60;;;;;;817338;173;26419;-79
2024/02/05 09:25:46;;;;;;;24.47;4.50;;;11.10;94.50;;;;;;810971;173;26423;-78
2024/02/05 09:28:11;;;;;;;11.47;4.23;;;11.10;94.10;;;;;;816819;174;26423;-79
2024/02/05 09:30:38;;;;;;;27.77;6.17;;;11.00;93.90;;;;;;812484;174;26431;-77
2024/02/05 09:33:05;;;;;;;17.17;4.70;;;11.00;94.30;;;;;;810500;173;26518;-79
2024/02/05 09:35:32;;;;;;;27.30;6.93;;;11.00;93.80;;;;;;822957;173;26425;-78
2024/02/05 09:37:58;;;;;;;21.20;5.33;;;11.10;94.30;;;;;;819985;174;26406;-79
2024/02/05 09:40:25;;;;;;;22.73;6.70;;;11.20;94.00;;;;;;822533;173;26458;-79
2024/02/05 09:42:52;;;;;;;24.43;6.20;;;11.20;93.90;;;;;;814784;173;26418;-80
2024/02/05 09:45:18;;;;;;;28.97;7.33;;;11.20;93.70;;;;;;819144;174;26418;-78
2024/02/05 09:47:45;;;;;;;31.77;8.13;;;11.30;93.50;;;;;;816293;174;27179;-80
2024/02/05 09:50:12;;;;;;;26.23;5.93;;;11.30;93.40;;;;;;817537;174;26446;-78
2024/02/05 09:52:40;;;;;;;28.47;8.50;;;11.30;93.20;;;;;;821269;174;26446;-79
2024/02/05 09:55:06;;;;;;;25.63;7.73;;;11.40;93.10;;;;;;819606;174;26417;-81
2024/02/05 09:57:32;;;;;;;24.63;6.83;;;11.40;93.10;;;;;;817002;173;26421;-80
2024/02/05 09:59:59;;;;;;;22.40;5.97;;;11.40;92.60;;;;;;807502;174;26420;-80
2024/02/05 10:02:26;;;;;;;24.37;5.67;;;11.40;92.60;;;;;;822463;173;27059;-79
2024/02/05 10:04:52;;;;;;;20.13;5.97;;;11.50;93.30;;;;;;822156;174;26445;-79
2024/02/05 10:07:19;;;;;;;13.13;5.47;;;11.60;92.40;;;;;;816243;174;26566;-78
2024/02/05 10:09:46;;;;;;;27.53;6.80;;;11.60;92.20;;;;;;816214;174;26421;-78
2024/02/05 10:12:12;;;;;;;19.60;5.83;;;11.60;92.10;;;;;;816060;173;26455;-76
2024/02/05 10:14:39;;;;;;;18.60;5.47;;;11.60;92.40;;;;;;813653;174;26414;-79
2024/02/05 10:17:06;;;;;;;22.43;5.37;;;11.60;92.30;;;;;;817753;173;26495;-79
2024/02/05 10:19:34;;;;;;;28.20;5.97;;;11.80;91.70;;;;;;810034;174;26425;-79
2024/02/05 10:22:00;;;;;;;17.70;4.50;;;11.90;92.10;;;;;;812254;173;26439;-83
2024/02/05 10:24:27;;;;;;;22.17;6.00;;;11.90;91.00;;;;;;818359;173;26438;-83
2024/02/05 10:26:53;;;;;;;22.20;5.47;;;11.90;91.40;;;;;;809838;174;26930;-84
2024/02/05 10:29:22;;;;;;;20.30;4.80;;;12.00;91.00;;;;;;808079;176;26414;-84
2024/02/05 10:31:49;;;;;;;25.50;5.80;;;12.10;91.50;;;;;;805781;175;26973;-83
2024/02/05 10:34:16;;;;;;;21.60;5.87;;;12.30;90.70;;;;;;803820;177;26409;-83
2024/02/05 10:36:42;;;;;;;42.83;13.37;;;12.40;90.50;;;;;;803906;177;26442;-84
2024/02/05 10:39:09;;;;;;;36.57;13.07;;;12.20;90.30;;;;;;803839;176;26419;-84
2024/02/05 10:41:38;;;;;;;36.07;12.87;;;12.40;90.60;;;;;;803302;177;26450;-84
2024/02/05 10:44:04;;;;;;;32.97;12.10;;;12.50;90.70;;;;;;774056;183;26476;-84
2024/02/05 10:46:33;;;;;;;31.97;10.93;;;12.60;90.60;;;;;;806630;176;26462;-84
2024/02/05 10:49:02;;;;;;;27.50;9.97;;;12.70;90.20;;;;;;805335;177;26457;-84
2024/02/05 10:51:30;;;;;;;22.77;7.50;;;12.90;89.30;;;;;;803968;176;26963;-84
2024/02/05 10:53:56;;;;;;;30.77;8.13;;;13.00;87.90;;;;;;803440;176;26967;-84
2024/02/05 10:56:22;;;;;;;65.57;21.00;;;13.10;87.20;;;;;;803709;177;26438;-84
2024/02/05 10:58:54;;;;;;;18.50;6.30;;;13.10;86.60;;;;;;805738;173;27031;-84
2024/02/05 11:01:16;;;;;;;20.57;5.73;;;13.20;86.90;;;;;;799820;179;26572;-84
2024/02/05 11:03:43;;;;;;;32.87;7.80;;;13.30;87.10;;;;;;802799;176;26442;-84
2024/02/05 11:06:10;;;;;;;25.60;6.13;;;14.40;83.40;;;;;;803939;177;26421;-84
2024/02/05 11:08:38;;;;;;;17.37;4.60;;;15.40;77.50;;;;;;803844;177;26419;-85
2024/02/05 11:11:09;;;;;;;22.87;7.50;;;15.60;74.70;;;;;;804191;177;27041;-84
2024/02/05 11:13:31;;;;;;;26.33;8.47;;;15.50;74.50;;;;;;803166;177;26413;-84
2024/02/05 11:15:58;;;;;;;21.00;6.30;;;15.30;74.60;;;;;;804855;178;26410;-84
2024/02/05 11:18:25;;;;;;;24.00;5.90;;;15.30;76.20;;;;;;803688;177;28055;-86
2024/02/05 11:20:51;;;;;;;21.57;6.47;;;15.80;75.30;;;;;;804440;177;26432;-84
2024/02/05 11:23:18;;;;;;;29.60;8.37;;;16.20;72.10;;;;;;803919;177;26537;-85
2024/02/05 11:25:45;;;;;;;34.93;11.50;;;16.50;69.90;;;;;;803569;177;26541;-84
2024/02/05 11:28:13;;;;;;;25.07;6.37;;;16.30;71.60;;;;;;803251;178;26422;-84
2024/02/05 11:30:45;;;;;;;12.73;4.40;;;16.20;72.10;;;;;;803848;177;26409;-85
2024/02/05 11:33:12;;;;;;;26.70;6.20;;;16.70;69.70;;;;;;804645;176;26406;-84
2024/02/05 11:35:46;;;;;;;69.80;26.53;;;17.40;68.60;;;;;;804330;177;26406;-84
2024/02/05 11:38:13;;;;;;;202.43;76.83;;;17.90;65.30;;;;;;803466;177;26425;-84
2024/02/05 11:40:40;;;;;;;91.93;37.57;;;16.30;68.20;;;;;;803504;178;26659;-83
2024/02/05 11:43:06;;;;;;;52.13;23.07;;;16.20;70.80;;;;;;804367;177;26577;-85
2024/02/05 11:45:33;;;;;;;78.10;30.00;;;16.00;70.20;;;;;;803020;176;26395;-84
2024/02/05 11:48:01;;;;;;;32.67;12.67;;;16.60;71.00;;;;;;802651;177;26483;-85
2024/02/05 11:50:28;;;;;;;26.70;8.77;;;17.00;68.20;;;;;;803842;177;26571;-84
2024/02/05 11:52:54;;;;;;;23.90;8.47;;;17.60;66.00;;;;;;802676;177;26406;-84
2024/02/05 11:55:23;;;;;;;43.10;17.93;;;17.30;64.70;;;;;;802988;176;26450;-84
2024/02/05 11:57:47;;;;;;;57.43;26.70;;;17.40;67.00;;;;;;804428;177;26443;-85
2024/02/05 12:00:15;;;;;;;32.97;15.37;;;17.50;64.20;;;;;;805224;178;26603;-85
2024/02/05 12:02:42;;;;;;;20.90;6.70;;;17.70;63.30;;;;;;804356;176;26431;-85
2024/02/05 12:05:08;;;;;;;31.80;13.40;;;18.70;62.50;;;;;;805922;178;26397;-84
2024/02/05 12:07:35;;;;;;;22.07;6.17;;;19.40;57.30;;;;;;805503;178;26430;-84
2024/02/05 12:10:01;;;;;;;23.00;8.00;;;18.70;58.60;;;;;;804610;178;26399;-84
2024/02/05 12:12:30;;;;;;;29.33;10.20;;;19.70;56.80;;;;;;804557;178;26593;-85
2024/02/05 12:14:55;;;;;;;27.10;8.67;;;19.10;57.50;;;;;;804300;175;26405;-84
2024/02/05 12:17:21;;;;;;;33.70;13.40;;;18.10;60.80;;;;;;803360;177;26430;-83
2024/02/05 12:19:48;;;;;;;29.73;10.50;;;17.20;62.90;;;;;;803647;178;26524;-83
2024/02/05 12:22:14;;;;;;;36.80;16.23;;;17.20;63.00;;;;;;804752;177;26434;-85
2024/02/05 12:24:41;;;;;;;34.90;13.53;;;17.10;65.00;;;;;;804869;176;26402;-84
2024/02/05 12:27:08;;;;;;;28.93;12.33;;;18.00;62.70;;;;;;805016;177;26434;-84
2024/02/05 12:29:34;;;;;;;25.17;6.17;;;18.50;58.60;;;;;;804823;177;26406;-83
2024/02/05 12:32:04;;;;;;;14.07;4.60;;;17.80;62.00;;;;;;804512;177;26440;-83